createdAt,value
2022-10-23T00:01:47.739Z,16.07
2022-10-23T00:04:18.082Z,17.04
2022-10-23T00:06:46.348Z,17.45
2022-10-23T00:09:16.967Z,16.91
2022-10-23T00:11:47.629Z,16.25
2022-10-23T00:14:17.352Z,15.73
2022-10-23T00:16:46.589Z,15.34
2022-10-23T00:19:14.465Z,15.03
2022-10-23T00:21:42.408Z,15.06
2022-10-23T00:26:44.609Z,17.15
2022-10-23T00:29:12.605Z,17.54
2022-10-23T00:31:40.513Z,16.95
2022-10-23T00:34:10.507Z,16.25
2022-10-23T00:36:38.558Z,15.71
2022-10-23T00:39:06.960Z,15.30
2022-10-23T00:41:37.017Z,14.97
2022-10-23T00:44:05.090Z,14.69
2022-10-23T00:46:33.530Z,14.76
2022-10-23T00:49:03.968Z,15.98
2022-10-23T00:51:36.063Z,17.07
2022-10-23T00:54:23.873Z,17.48
2022-10-23T00:56:54.855Z,16.73
2022-10-23T00:59:23.377Z,16.02
2022-10-23T01:01:51.990Z,15.49
2022-10-23T01:04:20.569Z,15.08
2022-10-23T01:06:53.693Z,14.75
2022-10-23T01:09:50.982Z,14.46
2022-10-23T01:12:30.966Z,14.61
2022-10-23T01:15:14.344Z,16.01
2022-10-23T01:17:56.567Z,16.75
2022-10-23T01:20:50.934Z,16.14
2022-10-23T01:24:01.185Z,15.37
2022-10-23T01:26:51.455Z,14.78
2022-10-23T01:29:19.926Z,14.39
2022-10-23T01:32:13.651Z,14.09
2022-10-23T01:34:41.478Z,14.25
2022-10-23T01:37:12.533Z,15.49
2022-10-23T01:39:45.718Z,16.61
2022-10-23T01:42:17.626Z,16.89
2022-10-23T01:44:52.090Z,16.16
2022-10-23T01:47:24.502Z,15.43
2022-10-23T01:50:02.969Z,14.88
2022-10-23T01:52:31.306Z,14.49
2022-10-23T01:55:01.426Z,14.15
2022-10-23T01:57:32.531Z,13.86
2022-10-23T02:00:07.361Z,13.88
2022-10-23T02:02:53.049Z,15.17
2022-10-23T02:05:25.163Z,16.27
2022-10-23T02:07:54.231Z,16.69
2022-10-23T02:10:27.704Z,16.05
2022-10-23T02:13:34.074Z,15.30
2022-10-23T02:16:06.502Z,14.65
2022-10-23T02:18:55.973Z,14.25
2022-10-23T02:21:57.951Z,13.89
2022-10-23T02:24:30.894Z,13.56
2022-10-23T02:27:06.387Z,13.66
2022-10-23T02:29:44.110Z,15.05
2022-10-23T02:32:14.916Z,16.21
2022-10-23T02:34:42.790Z,16.11
2022-10-23T02:37:11.706Z,15.37
2022-10-23T02:39:39.981Z,14.74
2022-10-23T02:42:30.585Z,14.28
2022-10-23T02:45:24.592Z,13.87
2022-10-23T02:48:01.574Z,13.52
2022-10-23T02:50:38.120Z,13.26
2022-10-23T02:53:25.118Z,13.38
2022-10-23T02:56:14.274Z,14.80
2022-10-23T02:58:47.707Z,15.89
2022-10-23T03:01:22.733Z,16.07
2022-10-23T03:03:53.830Z,15.33
2022-10-23T03:06:23.265Z,14.67
2022-10-23T03:09:05.544Z,14.16
2022-10-23T03:11:33.602Z,13.76
2022-10-23T03:14:01.898Z,13.47
2022-10-23T03:16:30.691Z,13.23
2022-10-23T03:18:58.697Z,13.26
2022-10-23T03:21:26.721Z,14.41
2022-10-23T03:23:54.711Z,15.50
2022-10-23T03:26:38.717Z,15.93
2022-10-23T03:29:06.607Z,15.33
2022-10-23T03:31:37.527Z,14.64
2022-10-23T03:34:11.005Z,14.13
2022-10-23T03:36:41.469Z,13.74
2022-10-23T03:39:10.144Z,13.44
2022-10-23T03:41:39.088Z,13.20
2022-10-23T03:44:07.099Z,13.26
2022-10-23T03:46:34.840Z,14.41
2022-10-23T03:49:02.902Z,15.51
2022-10-23T03:51:30.719Z,15.96
2022-10-23T03:53:58.645Z,15.42
2022-10-23T03:56:26.811Z,14.76
2022-10-23T03:58:54.725Z,14.26
2022-10-23T04:01:25.119Z,13.86
2022-10-23T04:03:53.190Z,13.56
2022-10-23T04:06:21.838Z,13.61
2022-10-23T04:08:50.228Z,14.77
2022-10-23T04:11:18.733Z,15.76
2022-10-23T04:13:47.499Z,16.20
2022-10-23T04:16:15.744Z,15.61
2022-10-23T04:18:45.514Z,14.92
2022-10-23T04:21:13.499Z,14.41
2022-10-23T04:23:41.782Z,14.02
2022-10-23T04:26:18.432Z,13.69
2022-10-23T04:28:46.206Z,13.44
2022-10-23T04:31:14.269Z,13.47
2022-10-23T04:33:43.288Z,14.55
2022-10-23T04:36:14.059Z,15.72
2022-10-23T04:38:41.955Z,16.26
2022-10-23T04:41:10.033Z,15.71
2022-10-23T04:43:37.937Z,14.99
2022-10-23T04:46:06.074Z,14.45
2022-10-23T04:48:35.181Z,14.06
2022-10-23T04:51:21.321Z,13.71
2022-10-23T04:54:09.656Z,13.43
2022-10-23T04:56:55.065Z,13.56
2022-10-23T04:59:22.971Z,14.73
2022-10-23T05:01:51.474Z,15.72
2022-10-23T05:04:19.666Z,16.08
2022-10-23T05:10:09.938Z,14.62
2022-10-23T05:12:48.420Z,14.13
2022-10-23T05:15:16.335Z,13.79
2022-10-23T05:17:46.970Z,13.50
2022-10-23T05:20:19.689Z,13.24
2022-10-23T05:22:50.255Z,13.31
2022-10-23T05:25:21.470Z,14.63
2022-10-23T05:27:53.609Z,16.02
2022-10-23T05:30:22.759Z,16.47
2022-10-23T05:32:54.620Z,15.82
2022-10-23T05:35:25.556Z,15.06
2022-10-23T05:37:54.200Z,14.52
2022-10-23T05:40:24.921Z,14.10
2022-10-23T05:42:59.279Z,13.76
2022-10-23T05:45:39.654Z,13.48
2022-10-23T05:48:35.379Z,13.20
2022-10-23T05:51:40.135Z,13.56
2022-10-23T05:54:27.918Z,15.23
2022-10-23T05:57:14.138Z,16.16
2022-10-23T05:59:45.638Z,15.58
2022-10-23T06:02:28.981Z,14.78
2022-10-23T06:05:03.803Z,14.24
2022-10-23T06:07:50.491Z,13.82
2022-10-23T06:10:18.965Z,13.54
2022-10-23T06:12:47.781Z,13.62
2022-10-23T06:15:17.187Z,14.89
2022-10-23T06:18:02.099Z,16.03
2022-10-23T06:20:33.013Z,16.57
2022-10-23T06:23:07.480Z,15.94
2022-10-23T06:25:58.115Z,15.17
2022-10-23T06:28:51.988Z,14.64
2022-10-23T06:31:21.781Z,14.30
2022-10-23T06:33:51.652Z,14.03
2022-10-23T06:36:20.729Z,13.81
2022-10-23T06:38:49.939Z,13.91
2022-10-23T06:41:20.189Z,15.15
2022-10-23T06:43:51.509Z,16.37
2022-10-23T06:46:35.133Z,16.82
2022-10-23T06:49:21.279Z,16.11
2022-10-23T06:51:49.396Z,15.50
2022-10-23T06:54:18.208Z,15.08
2022-10-23T06:56:51.823Z,14.76
2022-10-23T06:59:23.404Z,14.54
2022-10-23T07:04:26.129Z,15.96
2022-10-23T07:06:57.742Z,17.16
2022-10-23T07:09:30.853Z,17.67
2022-10-23T07:12:00.213Z,17.14
2022-10-23T07:14:36.208Z,16.52
2022-10-23T07:17:07.685Z,16.09
2022-10-23T07:19:35.447Z,15.82
2022-10-23T07:22:13.443Z,15.61
2022-10-23T07:24:54.430Z,15.83
2022-10-23T07:27:26.882Z,17.05
2022-10-23T07:30:00.289Z,18.23
2022-10-23T07:32:31.206Z,18.83
2022-10-23T07:35:18.022Z,18.35
2022-10-23T07:37:56.752Z,17.77
2022-10-23T07:40:32.941Z,17.33
2022-10-23T07:43:10.132Z,16.99
2022-10-23T07:45:43.535Z,16.70
2022-10-23T07:48:24.790Z,16.81
2022-10-23T07:51:11.701Z,18.15
2022-10-23T07:53:56.600Z,19.39
2022-10-23T07:57:04.273Z,19.63
2022-10-23T08:00:02.680Z,18.85
2022-10-23T08:02:45.353Z,18.24
2022-10-23T08:05:13.360Z,17.87
2022-10-23T08:07:56.067Z,17.55
2022-10-23T08:10:23.964Z,17.32
2022-10-23T08:12:51.935Z,17.43
2022-10-23T08:15:34.102Z,18.71
2022-10-23T08:18:15.529Z,19.61
2022-10-23T08:20:52.406Z,19.24
2022-10-23T08:23:29.089Z,18.76
2022-10-23T08:26:05.437Z,18.44
2022-10-23T08:28:37.573Z,18.21
2022-10-23T08:31:25.671Z,18.08
2022-10-23T08:34:18.812Z,17.97
2022-10-23T08:36:48.085Z,18.18
2022-10-23T08:39:19.569Z,19.37
2022-10-23T08:42:27.653Z,20.64
2022-10-23T08:45:13.899Z,21.11
2022-10-23T08:48:03.371Z,20.64
2022-10-23T08:51:22.497Z,20.12
2022-10-23T08:54:12.856Z,19.89
2022-10-23T08:57:08.811Z,19.77
2022-10-23T08:59:43.743Z,19.75
2022-10-23T09:02:22.409Z,19.79
2022-10-23T09:05:02.341Z,19.84
2022-10-23T09:08:16.308Z,19.85
2022-10-23T09:11:22.180Z,19.98
2022-10-23T09:14:19.126Z,20.09
2022-10-23T09:17:11.231Z,20.23
2022-10-23T09:19:46.402Z,20.40
2022-10-23T09:22:14.376Z,20.57
2022-10-23T09:24:53.693Z,20.72
2022-10-23T09:27:31.524Z,20.91
2022-10-23T09:30:28.962Z,21.09
2022-10-23T09:33:26.706Z,21.26
2022-10-23T09:35:59.582Z,21.42
2022-10-23T09:38:40.268Z,21.58
2022-10-23T09:41:33.951Z,21.73
2022-10-23T09:44:24.912Z,21.87
2022-10-23T09:47:27.890Z,22.01
2022-10-23T09:50:19.933Z,22.12
2022-10-23T09:53:02.066Z,22.26
2022-10-23T09:55:36.086Z,22.42
2022-10-23T09:58:05.441Z,22.51
2022-10-23T10:00:34.402Z,22.62
2022-10-23T10:03:18.241Z,22.70
2022-10-23T10:06:37.503Z,22.88
2022-10-23T10:09:20.208Z,23.11
2022-10-23T10:12:52.080Z,23.40
2022-10-23T10:16:09.011Z,23.69
2022-10-23T10:19:10.863Z,23.96
2022-10-23T10:22:01.615Z,24.19
2022-10-23T10:25:18.054Z,24.26
2022-10-23T10:28:00.372Z,24.19
2022-10-23T10:30:45.021Z,23.97
2022-10-23T10:33:42.836Z,23.73
2022-10-23T10:39:35.095Z,23.16
2022-10-23T10:42:39.646Z,22.87
2022-10-23T10:45:49.715Z,22.71
2022-10-23T10:49:04.962Z,22.75
2022-10-23T10:52:29.456Z,22.75
2022-10-23T10:55:23.785Z,22.87
2022-10-23T10:58:25.973Z,23.13
2022-10-23T11:00:59.327Z,23.39
2022-10-23T11:03:39.151Z,23.62
2022-10-23T11:10:18.859Z,23.96
2022-10-23T11:13:06.463Z,23.86
2022-10-23T11:15:40.716Z,23.62
2022-10-23T11:18:27.484Z,23.47
2022-10-23T11:21:18.167Z,23.53
2022-10-23T11:24:04.369Z,23.73
2022-10-23T11:27:05.964Z,23.97
2022-10-23T11:29:46.455Z,24.15
2022-10-23T11:32:29.362Z,24.30
2022-10-23T11:35:18.906Z,24.42
2022-10-23T11:38:09.991Z,24.59
2022-10-23T11:41:18.975Z,24.69
2022-10-23T11:44:11.169Z,24.75
2022-10-23T11:47:06.122Z,24.82
2022-10-23T11:49:41.038Z,24.89
2022-10-23T11:52:24.113Z,24.99
2022-10-23T11:55:30.908Z,25.16
2022-10-23T12:03:04.241Z,25.28
2022-10-23T12:16:01.305Z,24.70
2022-10-23T12:18:29.246Z,24.74
2022-10-23T12:21:02.244Z,24.71
2022-10-23T12:23:42.126Z,24.64
2022-10-23T12:26:31.323Z,24.59
2022-10-23T12:29:15.454Z,24.53
2022-10-23T12:32:27.372Z,24.44
2022-10-23T12:35:19.491Z,24.33
2022-10-23T12:38:14.807Z,24.28
2022-10-23T12:40:46.836Z,24.31
2022-10-23T12:43:35.398Z,24.35
2022-10-23T12:46:18.107Z,24.46
2022-10-23T12:48:49.729Z,24.53
2022-10-23T12:51:26.708Z,24.64
2022-10-23T12:53:54.949Z,24.66
2022-10-23T12:56:24.897Z,24.66
2022-10-23T12:58:57.346Z,24.60
2022-10-23T13:01:32.472Z,24.54
2022-10-23T13:06:47.667Z,25.00
2022-10-23T13:09:23.343Z,25.25
2022-10-23T13:12:27.332Z,25.61
2022-10-23T13:15:06.126Z,26.00
2022-10-23T13:17:43.631Z,26.38
2022-10-23T13:20:18.245Z,26.70
2022-10-23T13:23:00.257Z,26.99
2022-10-23T13:25:34.118Z,27.35
2022-10-23T13:28:28.949Z,27.77
2022-10-23T13:31:05.586Z,28.15
2022-10-23T13:33:53.417Z,28.52
2022-10-23T13:36:23.903Z,28.94
2022-10-23T13:39:09.960Z,29.26
2022-10-23T13:41:46.056Z,29.40
2022-10-23T13:44:17.443Z,29.53
2022-10-23T13:46:45.396Z,29.54
2022-10-23T13:49:13.193Z,29.31
2022-10-23T13:51:53.070Z,28.96
2022-10-23T13:54:23.857Z,28.57
2022-10-23T13:56:52.501Z,28.29
2022-10-23T13:59:20.466Z,28.27
2022-10-23T14:01:50.218Z,28.48
2022-10-23T14:04:19.449Z,28.73
2022-10-23T14:06:47.473Z,29.03
2022-10-23T14:09:18.541Z,29.03
2022-10-23T14:11:46.435Z,28.72
2022-10-23T14:14:14.230Z,28.37
2022-10-23T14:16:42.038Z,28.16
2022-10-23T14:19:11.641Z,28.16
2022-10-23T14:21:39.932Z,28.29
2022-10-23T14:24:09.158Z,28.30
2022-10-23T14:26:37.642Z,28.14
2022-10-23T14:29:09.771Z,27.92
2022-10-23T14:31:39.340Z,27.64
2022-10-23T14:34:07.560Z,27.28
2022-10-23T14:36:49.275Z,26.86
2022-10-23T14:39:18.666Z,26.41
2022-10-23T14:41:47.344Z,26.01
2022-10-23T14:44:15.147Z,25.64
2022-10-23T14:46:42.994Z,25.28
2022-10-23T14:49:10.874Z,24.93
2022-10-23T14:51:38.688Z,24.60
2022-10-23T14:54:07.788Z,24.22
2022-10-23T14:56:37.991Z,23.82
2022-10-23T14:59:06.646Z,23.46
2022-10-23T15:01:41.249Z,23.14
2022-10-23T15:04:14.760Z,22.82
2022-10-23T15:06:43.457Z,22.53
2022-10-23T15:09:11.249Z,22.26
2022-10-23T15:11:39.480Z,22.02
2022-10-23T15:14:07.736Z,21.77
2022-10-23T15:16:41.522Z,21.54
2022-10-23T15:19:18.193Z,21.29
2022-10-23T15:21:47.929Z,21.05
2022-10-23T15:24:17.158Z,20.85
2022-10-23T15:26:45.319Z,20.66
2022-10-23T15:29:14.728Z,20.47
2022-10-23T15:32:13.762Z,20.30
2022-10-23T15:34:42.890Z,20.09
2022-10-23T15:37:11.280Z,19.92
2022-10-23T15:39:39.110Z,19.75
2022-10-23T15:42:07.169Z,19.59
2022-10-23T15:44:35.053Z,19.45
2022-10-23T15:47:03.001Z,19.32
2022-10-23T15:49:30.911Z,19.19
2022-10-23T15:51:59.413Z,19.08
2022-10-23T15:54:30.497Z,18.96
2022-10-23T15:57:02.262Z,18.85
2022-10-23T15:59:32.061Z,18.74
2022-10-23T16:02:00.001Z,18.64
2022-10-23T16:04:28.740Z,18.53
2022-10-23T16:06:56.984Z,18.42
2022-10-23T16:09:24.792Z,18.61
2022-10-23T16:11:52.551Z,19.78
2022-10-23T16:14:20.376Z,20.83
2022-10-23T16:16:48.228Z,21.26
2022-10-23T16:19:16.025Z,20.78
2022-10-23T16:21:43.872Z,20.19
2022-10-23T16:24:11.828Z,19.75
2022-10-23T16:26:39.923Z,19.42
2022-10-23T16:29:09.325Z,19.15
2022-10-23T16:31:37.621Z,18.92
2022-10-23T16:34:06.719Z,18.71
2022-10-23T16:36:35.300Z,18.52
2022-10-23T16:39:29.754Z,18.28
2022-10-23T16:45:12.014Z,19.82
2022-10-23T16:47:39.962Z,20.69
2022-10-23T16:50:08.503Z,20.93
2022-10-23T16:52:36.431Z,20.34
2022-10-23T16:55:07.174Z,19.71
2022-10-23T16:57:36.101Z,19.23
2022-10-23T17:00:05.475Z,18.86
2022-10-23T17:02:35.511Z,18.57
2022-10-23T17:05:03.954Z,18.30
2022-10-23T17:07:32.613Z,18.08
2022-10-23T17:10:00.753Z,17.88
2022-10-23T17:12:28.667Z,17.97
2022-10-23T17:14:56.660Z,18.98
2022-10-23T17:17:24.807Z,19.90
2022-10-23T17:19:52.674Z,20.33
2022-10-23T17:22:20.819Z,19.83
2022-10-23T17:24:51.474Z,19.24
2022-10-23T17:27:21.849Z,18.78
2022-10-23T17:29:49.652Z,18.44
2022-10-23T17:32:17.710Z,18.15
2022-10-23T17:34:46.658Z,17.92
2022-10-23T17:37:14.517Z,17.95
2022-10-23T17:39:42.317Z,18.95
2022-10-23T17:42:10.260Z,19.94
2022-10-23T17:44:38.073Z,20.41
2022-10-23T17:47:05.846Z,19.87
2022-10-23T17:49:33.696Z,19.19
2022-10-23T17:52:02.107Z,18.68
2022-10-23T17:54:30.294Z,18.28
2022-10-23T17:56:58.851Z,17.97
2022-10-23T17:59:26.973Z,17.70
2022-10-23T18:01:55.968Z,17.74
2022-10-23T18:04:25.296Z,18.76
2022-10-23T18:06:53.644Z,19.72
2022-10-23T18:09:22.608Z,20.17
2022-10-23T18:11:50.838Z,19.65
2022-10-23T18:14:20.319Z,18.99
2022-10-23T18:16:49.560Z,18.45
2022-10-23T18:19:18.480Z,18.03
2022-10-23T18:21:47.430Z,17.71
2022-10-23T18:24:15.924Z,17.71
2022-10-23T18:26:44.372Z,18.53
2022-10-23T18:29:12.771Z,19.32
2022-10-23T18:31:41.532Z,19.90
2022-10-23T18:34:21.552Z,20.20
2022-10-23T18:36:51.314Z,19.55
2022-10-23T18:39:22.517Z,18.87
2022-10-23T18:41:56.317Z,18.30
2022-10-23T18:44:26.951Z,17.88
2022-10-23T18:46:57.055Z,17.83
2022-10-23T18:49:25.163Z,18.66
2022-10-23T18:51:53.333Z,19.49
2022-10-23T18:54:21.823Z,20.24
2022-10-23T18:56:50.211Z,20.54
2022-10-23T18:59:20.171Z,19.84
2022-10-23T19:01:49.004Z,19.05
2022-10-23T19:04:18.386Z,18.42
2022-10-23T19:06:47.779Z,17.96
2022-10-23T19:09:15.911Z,17.93
2022-10-23T19:11:44.068Z,18.82
2022-10-23T19:14:11.957Z,19.62
2022-10-23T19:16:45.325Z,20.06
2022-10-23T19:19:20.605Z,19.51
2022-10-23T19:21:49.247Z,18.74
2022-10-23T19:24:23.241Z,18.18
2022-10-23T19:26:51.106Z,17.74
2022-10-23T19:29:22.007Z,17.71
2022-10-23T19:31:50.751Z,18.61
2022-10-23T19:34:20.180Z,19.46
2022-10-23T19:36:48.760Z,20.06
2022-10-23T19:39:17.170Z,20.20
2022-10-23T19:41:45.648Z,19.56
2022-10-23T19:44:14.503Z,18.89
2022-10-23T19:46:42.350Z,18.35
2022-10-23T19:49:10.791Z,17.96
2022-10-23T19:51:39.512Z,17.61
2022-10-23T19:54:07.499Z,17.57
2022-10-23T19:56:36.150Z,18.49
2022-10-23T19:59:04.345Z,19.40
2022-10-23T20:01:32.347Z,20.03
2022-10-23T20:04:00.444Z,20.03
2022-10-23T20:06:31.949Z,19.28
2022-10-23T20:09:01.264Z,18.54
2022-10-23T20:11:30.616Z,17.99
2022-10-23T20:13:59.222Z,17.59
2022-10-23T20:16:33.510Z,17.52
2022-10-23T20:19:06.955Z,18.55
2022-10-23T20:21:35.986Z,19.44
2022-10-23T20:24:04.015Z,19.75
2022-10-23T20:26:32.042Z,19.18
2022-10-23T20:28:59.909Z,18.42
2022-10-23T20:31:27.880Z,17.80
2022-10-23T20:33:56.407Z,17.38
2022-10-23T20:36:46.688Z,17.32
2022-10-23T20:39:18.798Z,18.61
2022-10-23T20:41:47.578Z,19.63
2022-10-23T20:46:49.952Z,19.27
2022-10-23T20:49:18.921Z,18.49
2022-10-23T20:51:54.866Z,17.90
2022-10-23T20:54:28.646Z,17.46
2022-10-23T20:56:57.126Z,17.12
2022-10-23T20:59:25.466Z,17.14
2022-10-23T21:01:55.357Z,18.25
2022-10-23T21:04:26.480Z,19.35
2022-10-23T21:07:11.700Z,19.74
2022-10-23T21:09:40.217Z,18.98
2022-10-23T21:12:08.660Z,18.21
2022-10-23T21:14:36.680Z,17.64
2022-10-23T21:17:04.781Z,17.22
2022-10-23T21:19:32.582Z,17.11
2022-10-23T21:22:00.496Z,18.01
2022-10-23T21:24:28.223Z,18.77
2022-10-23T21:26:56.066Z,19.08
2022-10-23T21:29:23.931Z,18.58
2022-10-23T21:31:55.924Z,17.90
2022-10-23T21:34:25.394Z,17.37
2022-10-23T21:37:12.598Z,16.98
2022-10-23T21:39:42.852Z,16.95
2022-10-23T21:42:12.057Z,17.95
2022-10-23T21:44:40.210Z,19.01
2022-10-23T21:47:08.096Z,19.50
2022-10-23T21:49:35.917Z,18.90
2022-10-23T21:52:04.243Z,18.12
2022-10-23T21:54:32.043Z,17.54
2022-10-23T21:56:59.872Z,17.12
2022-10-23T21:59:30.139Z,16.79
2022-10-23T22:01:59.761Z,16.83
2022-10-23T22:04:27.687Z,17.80
2022-10-23T22:06:55.675Z,18.73
2022-10-23T22:09:23.569Z,19.10
2022-10-23T22:11:52.616Z,18.61
2022-10-23T22:14:21.896Z,17.92
2022-10-23T22:16:49.783Z,17.36
2022-10-23T22:19:18.688Z,16.91
2022-10-23T22:21:47.924Z,16.86
2022-10-23T22:24:16.331Z,17.77
2022-10-23T22:26:47.717Z,18.70
2022-10-23T22:29:18.286Z,19.13
2022-10-23T22:31:48.949Z,18.57
2022-10-23T22:34:34.169Z,17.79
2022-10-23T22:37:09.951Z,17.10
2022-10-23T22:40:35.945Z,16.68
2022-10-23T22:43:04.066Z,16.84
2022-10-23T22:45:31.797Z,17.82
2022-10-23T22:47:59.531Z,18.66
2022-10-23T22:50:27.627Z,18.94
2022-10-23T22:52:55.362Z,18.31
2022-10-23T22:55:23.125Z,17.59
2022-10-23T22:57:50.892Z,17.05
2022-10-23T23:01:38.416Z,16.63
2022-10-23T23:04:19.744Z,17.11
2022-10-23T23:06:54.376Z,18.51
2022-10-23T23:09:22.300Z,19.09
2022-10-23T23:11:52.025Z,18.51
2022-10-23T23:14:23.625Z,17.75
2022-10-23T23:16:54.464Z,17.19
2022-10-23T23:19:23.291Z,16.80
2022-10-23T23:21:51.186Z,16.73
2022-10-23T23:24:18.976Z,17.50
2022-10-23T23:26:46.790Z,18.29
2022-10-23T23:29:14.553Z,18.87
2022-10-23T23:31:45.976Z,19.02
2022-10-23T23:34:14.010Z,18.40
2022-10-23T23:36:41.798Z,17.72
2022-10-23T23:39:10.436Z,17.21
2022-10-23T23:41:38.387Z,16.84
2022-10-23T23:44:06.602Z,16.74
2022-10-23T23:46:34.405Z,17.57
2022-10-23T23:49:02.218Z,18.43
2022-10-23T23:51:30.373Z,18.88
2022-10-23T23:53:58.135Z,18.40
2022-10-23T23:56:25.987Z,17.79
2022-10-23T23:58:53.742Z,17.31
